Time,TemperatureF,DewpointF,PressureIn,WindDirection,WindDirectionDegrees,WindSpeedMPH,WindSpeedGustMPH,Humidity,HourlyPrecipIn,Conditions,Clouds,dailyrainin,SolarRadiationWatts/m^2,SoftwareType,DateUTC
2013-07-25 00:01:00,62.0,54.4,29.91,NE,53,4.0,5.0,76,0.00,,---,0.00,0.00,VWS V14.00,2013-07-25 04:01:00,
2013-07-25 00:06:00,61.8,54.2,29.91,NE,45,0.0,0.0,76,0.00,,---,0.00,0.00,VWS V14.00,2013-07-25 04:06:00,
2013-07-25 00:11:00,61.8,54.5,29.92,NNW,330,0.0,0.0,77,0.00,,---,0.00,0.00,VWS V14.00,2013-07-25 04:11:00,
2013-07-25 00:16:00,61.6,54.0,29.91,ENE,67,0.0,7.0,76,0.00,,---,0.00,0.00,VWS V14.00,2013-07-25 04:16:00,
2013-07-25 00:21:00,61.5,53.9,29.92,ENE,59,0.0,1.0,76,0.00,,---,0.00,0.00,VWS V14.00,2013-07-25 04:21:00,
2013-07-25 00:26:00,61.5,54.2,29.92,NNW,329,3.0,6.0,77,0.00,,---,0.00,0.00,VWS V14.00,2013-07-25 04:26:00,
2013-07-25 00:31:00,61.3,53.7,29.92,NNE,12,1.0,2.0,76,0.00,,---,0.00,0.00,VWS V14.00,2013-07-25 04:31:00,
2013-07-25 00:36:00,61.3,54.4,29.92,WNW,291,0.0,1.0,78,0.00,,---,0.00,0.00,VWS V14.00,2013-07-25 04:36:00,
2013-07-25 00:41:00,61.3,54.4,29.92,North,5,0.0,1.0,78,0.00,,---,0.00,0.00,VWS V14.00,2013-07-25 04:41:00,
2013-07-25 00:47:00,61.2,54.3,29.92,North,5,0.0,1.0,78,0.00,,---,0.00,0.00,VWS V14.00,2013-07-25 04:47:00,
2013-07-25 00:52:00,61.2,54.6,29.92,North,5,1.0,1.0,79,0.00,,---,0.00,0.00,VWS V14.00,2013-07-25 04:52:00,
2013-07-25 00:57:00,61.0,54.5,29.92,North,5,1.0,3.0,79,0.00,,---,0.00,0.00,VWS V14.00,2013-07-25 04:57:00,
2013-07-25 01:02:00,61.0,54.8,29.92,NNE,21,2.0,2.0,80,0.00,,---,0.00,0.00,VWS V14.00,2013-07-25 05:02:00,
2013-07-25 01:07:00,61.0,54.8,29.92,North,360,0.0,6.0,80,0.00,,---,0.00,0.00,VWS V14.00,2013-07-25 05:07:00,
2013-07-25 01:12:00,61.2,54.6,29.92,NE,43,0.0,3.0,79,0.00,,---,0.00,0.00,VWS V14.00,2013-07-25 05:12:00,
2013-07-25 01:17:00,61.2,55.0,29.92,NNW,336,0.0,2.0,80,0.00,,---,0.00,0.00,VWS V14.00,2013-07-25 05:17:00,
2013-07-25 01:22:00,61.0,54.8,29.93,NE,46,1.0,3.0,80,0.00,,---,0.00,0.00,VWS V14.00,2013-07-25 05:22:00,
2013-07-25 01:27:00,61.0,54.8,29.93,NE,40,0.0,0.0,80,0.00,,---,0.00,0.00,VWS V14.00,2013-07-25 05:27:00,
2013-07-25 01:32:00,60.9,54.7,29.93,NW,319,0.0,1.0,80,0.00,,---,0.00,0.00,VWS V14.00,2013-07-25 05:32:00,
2013-07-25 01:37:00,60.9,54.7,29.93,North,5,3.0,3.0,80,0.00,,---,0.00,0.00,VWS V14.00,2013-07-25 05:37:00,
2013-07-25 01:42:00,60.7,54.5,29.93,North,5,0.0,3.0,80,0.00,,---,0.00,0.00,VWS V14.00,2013-07-25 05:42:00,
2013-07-25 01:47:00,60.5,54.7,29.92,ENE,61,0.0,1.0,81,0.00,,---,0.00,0.00,VWS V14.00,2013-07-25 05:47:00,
2013-07-25 01:52:00,60.5,55.0,29.93,ENE,58,0.0,1.0,82,0.00,,---,0.00,0.00,VWS V14.00,2013-07-25 05:52:00,
2013-07-25 01:57:00,60.5,55.3,29.92,North,5,1.0,2.0,83,0.00,,---,0.00,0.00,VWS V14.00,2013-07-25 05:57:00,
2013-07-25 02:02:00,60.7,55.5,29.92,ENE,61,0.0,0.0,83,0.00,,---,0.00,0.00,VWS V14.00,2013-07-25 06:02:00,
2013-07-25 02:07:00,60.7,55.2,29.92,NE,34,0.0,4.0,82,0.00,,---,0.00,0.00,VWS V14.00,2013-07-25 06:07:00,
2013-07-25 02:12:00,60.7,55.2,29.92,SE,130,1.0,5.0,82,0.00,,---,0.00,0.00,VWS V14.00,2013-07-25 06:12:00,
2013-07-25 02:17:00,60.7,54.8,29.92,ENE,74,0.0,4.0,81,0.00,,---,0.00,0.00,VWS V14.00,2013-07-25 06:17:00,
2013-07-25 02:22:00,60.7,55.2,29.92,ESE,108,0.0,0.0,82,0.00,,---,0.00,0.00,VWS V14.00,2013-07-25 06:22:00,
2013-07-25 02:27:00,60.5,54.7,29.92,NNE,26,0.0,0.0,81,0.00,,---,0.00,0.00,VWS V14.00,2013-07-25 06:27:00,
2013-07-25 02:32:00,60.4,54.5,29.93,North,360,10.0,10.0,81,0.00,,---,0.00,0.00,VWS V14.00,2013-07-25 06:32:00,
2013-07-25 02:37:00,60.2,54.0,29.94,NNE,28,7.0,11.0,80,0.00,,---,0.00,0.00,VWS V14.00,2013-07-25 06:37:00,
2013-07-25 02:42:00,60.2,54.7,29.94,ENE,58,4.0,6.0,82,0.00,,---,0.00,0.00,VWS V14.00,2013-07-25 06:42:00,
2013-07-25 02:47:00,60.2,54.4,29.94,ENE,73,1.0,3.0,81,0.00,,---,0.00,0.00,VWS V14.00,2013-07-25 06:47:00,
2013-07-25 02:52:00,60.2,54.4,29.94,West,265,4.0,4.0,81,0.00,,---,0.00,0.00,VWS V14.00,2013-07-25 06:52:00,
2013-07-25 02:57:00,60.2,55.0,29.94,ENE,68,0.0,1.0,83,0.00,,---,0.00,0.00,VWS V14.00,2013-07-25 06:57:00,
2013-07-25 03:02:00,60.1,54.3,29.93,East,82,1.0,5.0,81,0.00,,---,0.00,0.00,VWS V14.00,2013-07-25 07:02:00,
2013-07-25 03:07:00,59.9,54.1,29.94,NNE,33,1.0,5.0,81,0.00,,---,0.00,0.00,VWS V14.00,2013-07-25 07:07:00,
2013-07-25 03:12:00,59.9,54.1,29.94,North,355,2.0,7.0,81,0.00,,---,0.00,0.00,VWS V14.00,2013-07-25 07:12:00,
2013-07-25 03:17:00,59.6,53.4,29.93,ESE,115,2.0,7.0,80,0.00,,---,0.00,0.00,VWS V14.00,2013-07-25 07:17:00,
2013-07-25 03:22:00,59.6,53.8,29.93,ESE,106,5.0,9.0,81,0.00,,---,0.00,0.00,VWS V14.00,2013-07-25 07:22:00,
2013-07-25 03:27:00,59.5,53.3,29.93,NE,36,1.0,5.0,80,0.00,,---,0.00,0.00,VWS V14.00,2013-07-25 07:27:00,
2013-07-25 03:32:00,59.5,53.3,29.94,ESE,105,2.0,3.0,80,0.00,,---,0.00,0.00,VWS V14.00,2013-07-25 07:32:00,
2013-07-25 03:37:00,59.5,53.0,29.94,NW,311,3.0,10.0,79,0.00,,---,0.00,0.00,VWS V14.00,2013-07-25 07:37:00,
2013-07-25 03:42:00,59.3,53.1,29.94,NE,41,1.0,5.0,80,0.00,,---,0.00,0.00,VWS V14.00,2013-07-25 07:42:00,
2013-07-25 03:47:00,59.3,52.5,29.94,NE,55,1.0,4.0,78,0.00,,---,0.00,0.00,VWS V14.00,2013-07-25 07:47:00,
2013-07-25 03:52:00,59.2,52.7,29.94,NE,49,4.0,5.0,79,0.00,,---,0.00,0.00,VWS V14.00,2013-07-25 07:52:00,
2013-07-25 03:57:00,59.0,51.5,29.94,NNE,30,0.0,7.0,76,0.00,,---,0.00,0.00,VWS V14.00,2013-07-25 07:57:00,
2013-07-25 04:02:00,58.9,51.4,29.94,North,360,3.0,9.0,76,0.00,,---,0.00,0.00,VWS V14.00,2013-07-25 08:02:00,
2013-07-25 04:07:00,58.7,51.2,29.94,ESE,118,2.0,9.0,76,0.00,,---,0.00,0.00,VWS V14.00,2013-07-25 08:07:00,
2013-07-25 04:12:00,58.6,50.7,29.94,NNE,14,0.0,5.0,75,0.00,,---,0.00,0.00,VWS V14.00,2013-07-25 08:12:00,
2013-07-25 04:17:00,58.4,50.5,29.94,SSE,158,9.0,9.0,75,0.00,,---,0.00,0.00,VWS V14.00,2013-07-25 08:17:00,
2013-07-25 04:22:00,58.4,50.5,29.94,NNW,338,1.0,3.0,75,0.00,,---,0.00,0.00,VWS V14.00,2013-07-25 08:22:00,
2013-07-25 04:27:00,58.3,50.4,29.95,NE,47,2.0,10.0,75,0.00,,---,0.00,0.00,VWS V14.00,2013-07-25 08:27:00,
2013-07-25 04:32:00,58.3,50.1,29.95,ESE,112,2.0,4.0,74,0.00,,---,0.00,0.00,VWS V14.00,2013-07-25 08:32:00,
2013-07-25 04:37:00,58.3,50.1,29.96,NNE,22,0.0,3.0,74,0.00,,---,0.00,0.00,VWS V14.00,2013-07-25 08:37:00,
2013-07-25 04:42:00,58.1,49.5,29.96,NNE,32,0.0,6.0,73,0.00,,---,0.00,0.00,VWS V14.00,2013-07-25 08:42:00,
2013-07-25 04:47:00,58.1,49.1,29.96,ESE,105,3.0,5.0,72,0.00,,---,0.00,0.00,VWS V14.00,2013-07-25 08:47:00,
2013-07-25 04:52:00,58.0,48.7,29.96,WNW,292,1.0,5.0,71,0.00,,---,0.00,0.00,VWS V14.00,2013-07-25 08:52:00,
2013-07-25 04:57:00,58.0,49.0,29.96,ENE,67,3.0,4.0,72,0.00,,---,0.00,0.00,VWS V14.00,2013-07-25 08:57:00,
2013-07-25 05:02:00,57.8,48.5,29.96,NE,46,3.0,5.0,71,0.00,,---,0.00,0.00,VWS V14.00,2013-07-25 09:02:00,
2013-07-25 05:07:00,57.8,49.2,29.96,NE,53,0.0,3.0,73,0.00,,---,0.00,0.00,VWS V14.00,2013-07-25 09:07:00,
2013-07-25 05:12:00,57.8,49.2,29.96,West,270,6.0,6.0,73,0.00,,---,0.00,0.00,VWS V14.00,2013-07-25 09:12:00,
2013-07-25 05:17:00,57.6,49.0,29.97,SE,135,0.0,2.0,73,0.00,,---,0.00,0.00,VWS V14.00,2013-07-25 09:17:00,
2013-07-25 05:22:00,57.5,48.9,29.98,ENE,59,0.0,6.0,73,0.00,,---,0.00,0.00,VWS V14.00,2013-07-25 09:22:00,
2013-07-25 05:27:00,57.5,48.6,29.98,ENE,59,3.0,4.0,72,0.00,,---,0.00,0.00,VWS V14.00,2013-07-25 09:27:00,
2013-07-25 05:32:00,57.5,48.2,29.98,NNE,14,2.0,3.0,71,0.00,,---,0.00,0.00,VWS V14.00,2013-07-25 09:32:00,
2013-07-25 05:37:00,57.3,48.4,29.98,NNW,330,1.0,6.0,72,0.00,,---,0.00,0.00,VWS V14.00,2013-07-25 09:37:00,
2013-07-25 05:42:00,57.3,48.7,29.98,ENE,66,4.0,5.0,73,0.00,,---,0.00,0.00,VWS V14.00,2013-07-25 09:42:00,
2013-07-25 05:47:00,57.3,48.7,29.98,NE,38,0.0,3.0,73,0.00,,---,0.00,0.00,VWS V14.00,2013-07-25 09:47:00,
2013-07-25 05:52:00,57.3,48.7,29.98,ESE,109,0.0,2.0,73,0.00,,---,0.00,0.00,VWS V14.00,2013-07-25 09:52:00,
2013-07-25 05:57:00,57.2,48.3,29.98,NE,37,1.0,1.0,72,0.00,,---,0.00,7.00,VWS V14.00,2013-07-25 09:57:00,
2013-07-25 06:02:00,57.2,48.6,29.97,NE,40,2.0,3.0,73,0.00,,---,0.00,16.00,VWS V14.00,2013-07-25 10:02:00,
2013-07-25 06:07:00,57.2,48.6,29.98,ENE,74,1.0,1.0,73,0.00,,---,0.00,21.00,VWS V14.00,2013-07-25 10:07:00,
2013-07-25 06:12:00,57.2,49.0,29.98,ESE,122,2.0,3.0,74,0.00,,---,0.00,16.00,VWS V14.00,2013-07-25 10:12:00,
2013-07-25 06:17:00,57.2,48.6,29.98,SSW,197,1.0,2.0,73,0.00,,---,0.00,21.00,VWS V14.00,2013-07-25 10:17:00,
2013-07-25 06:22:00,57.2,48.6,29.99,ESE,120,1.0,3.0,73,0.00,,---,0.00,25.00,VWS V14.00,2013-07-25 10:22:00,
2013-07-25 06:27:00,57.2,48.6,29.99,NE,36,0.0,6.0,73,0.00,,---,0.00,25.00,VWS V14.00,2013-07-25 10:27:00,
2013-07-25 06:32:00,57.2,48.6,29.99,NE,43,2.0,4.0,73,0.00,,---,0.00,21.00,VWS V14.00,2013-07-25 10:32:00,
2013-07-25 06:37:00,57.2,48.6,29.99,ENE,65,4.0,5.0,73,0.00,,---,0.00,26.00,VWS V14.00,2013-07-25 10:37:00,
2013-07-25 06:42:00,57.0,48.8,29.99,ENE,65,8.0,8.0,74,0.00,,---,0.00,16.00,VWS V14.00,2013-07-25 10:42:00,
2013-07-25 06:47:00,57.0,48.1,29.99,NE,34,5.0,9.0,72,0.00,,---,0.00,19.00,VWS V14.00,2013-07-25 10:47:00,
2013-07-25 06:52:00,56.9,47.6,29.99,ENE,65,2.0,3.0,71,0.00,,---,0.00,26.00,VWS V14.00,2013-07-25 10:52:00,
2013-07-25 06:57:00,56.7,48.2,29.99,NE,34,5.0,6.0,73,0.00,,---,0.00,23.00,VWS V14.00,2013-07-25 10:57:00,
2013-07-25 07:02:00,56.7,47.8,30.00,NE,53,3.0,4.0,72,0.00,,---,0.00,16.00,VWS V14.00,2013-07-25 11:02:00,
2013-07-25 07:07:00,56.7,47.8,30.00,SE,137,1.0,3.0,72,0.00,,---,0.00,14.00,VWS V14.00,2013-07-25 11:07:00,
2013-07-25 07:12:00,56.7,48.5,30.00,ENE,60,5.0,11.0,74,0.00,,---,0.00,25.00,VWS V14.00,2013-07-25 11:12:00,
2013-07-25 07:17:00,56.7,48.5,30.00,East,95,0.0,6.0,74,0.00,,---,0.00,39.00,VWS V14.00,2013-07-25 11:17:00,
2013-07-25 07:22:00,56.6,48.1,30.01,ENE,74,1.0,5.0,73,0.00,,---,0.00,39.00,VWS V14.00,2013-07-25 11:22:00,
2013-07-25 07:27:00,56.6,48.1,30.01,NNE,17,3.0,6.0,73,0.00,,---,0.00,42.00,VWS V14.00,2013-07-25 11:27:00,
2013-07-25 07:32:00,56.6,47.7,30.01,NE,53,0.0,4.0,72,0.00,,---,0.00,44.00,VWS V14.00,2013-07-25 11:32:00,
2013-07-25 07:37:00,56.5,47.6,30.01,East,92,0.0,1.0,72,0.00,,---,0.00,35.00,VWS V14.00,2013-07-25 11:37:00,
2013-07-25 07:42:00,56.5,48.0,30.01,NE,42,3.0,5.0,73,0.00,,---,0.00,28.00,VWS V14.00,2013-07-25 11:42:00,
2013-07-25 07:47:00,56.6,49.1,30.01,NNE,28,6.0,6.0,76,0.00,,---,0.00,33.00,VWS V14.00,2013-07-25 11:47:00,
2013-07-25 07:52:00,56.6,48.8,30.01,NE,53,0.0,3.0,75,0.00,,---,0.00,49.00,VWS V14.00,2013-07-25 11:52:00,
2013-07-25 07:57:00,56.5,48.3,30.01,NNW,328,2.0,3.0,74,0.00,,---,0.00,83.00,VWS V14.00,2013-07-25 11:57:00,
2013-07-25 08:02:00,56.6,48.1,30.01,NNE,26,2.0,8.0,73,0.00,,---,0.00,53.00,VWS V14.00,2013-07-25 12:02:00,
2013-07-25 08:07:00,56.6,48.8,30.02,NE,34,1.0,2.0,75,0.00,,---,0.00,39.00,VWS V14.00,2013-07-25 12:07:00,
2013-07-25 08:12:00,56.6,48.4,30.02,NE,36,1.0,4.0,74,0.00,,---,0.00,39.00,VWS V14.00,2013-07-25 12:12:00,
2013-07-25 08:17:00,56.6,48.8,30.03,ENE,57,5.0,5.0,75,0.00,,---,0.00,33.00,VWS V14.00,2013-07-25 12:17:00,
2013-07-25 08:22:00,56.6,49.1,30.03,ESE,111,3.0,6.0,76,0.00,,---,0.00,39.00,VWS V14.00,2013-07-25 12:22:00,
2013-07-25 08:27:00,56.5,48.3,30.03,NW,319,0.0,3.0,74,0.00,,---,0.00,32.00,VWS V14.00,2013-07-25 12:27:00,
2013-07-25 08:32:00,56.6,49.1,30.03,NE,44,1.0,1.0,76,0.00,,---,0.00,26.00,VWS V14.00,2013-07-25 12:32:00,
2013-07-25 08:37:00,56.5,49.4,30.04,NNW,345,0.0,2.0,77,0.00,,---,0.00,25.00,VWS V14.00,2013-07-25 12:37:00,
2013-07-25 08:42:00,56.5,48.7,30.04,NNE,26,1.0,1.0,75,0.00,,---,0.00,28.00,VWS V14.00,2013-07-25 12:42:00,
2013-07-25 08:47:00,56.5,49.0,30.04,NE,48,0.0,0.0,76,0.00,,---,0.00,25.00,VWS V14.00,2013-07-25 12:47:00,
2013-07-25 08:52:00,56.5,49.0,30.04,ENE,69,0.0,0.0,76,0.00,,---,0.00,32.00,VWS V14.00,2013-07-25 12:52:00,
2013-07-25 08:57:00,56.5,49.4,30.04,ENE,67,0.0,4.0,77,0.00,,---,0.00,62.00,VWS V14.00,2013-07-25 12:57:00,
2013-07-25 09:02:00,56.6,49.5,30.04,NNE,22,5.0,5.0,77,0.00,,---,0.00,69.00,VWS V14.00,2013-07-25 13:02:00,
2013-07-25 09:07:00,56.6,49.5,30.04,ENE,61,0.0,1.0,77,0.00,,---,0.00,74.00,VWS V14.00,2013-07-25 13:07:00,
2013-07-25 09:12:00,56.7,49.9,30.04,ENE,59,1.0,4.0,78,0.00,,---,0.00,76.00,VWS V14.00,2013-07-25 13:12:00,
2013-07-25 09:17:00,56.9,50.5,30.04,NE,36,0.0,0.0,79,0.00,,---,0.00,107.00,VWS V14.00,2013-07-25 13:17:00,
2013-07-25 09:22:00,57.0,49.5,30.04,North,351,0.0,0.0,76,0.00,,---,0.00,90.00,VWS V14.00,2013-07-25 13:22:00,
2013-07-25 09:27:00,57.0,49.9,30.04,NE,42,0.0,0.0,77,0.00,,---,0.00,90.00,VWS V14.00,2013-07-25 13:27:00,
2013-07-25 09:32:00,57.0,49.2,30.05,East,86,4.0,4.0,75,0.00,,---,0.00,91.00,VWS V14.00,2013-07-25 13:32:00,
2013-07-25 09:37:00,57.2,49.7,30.05,ENE,59,2.0,5.0,76,0.00,,---,0.00,98.00,VWS V14.00,2013-07-25 13:37:00,
2013-07-25 09:42:00,57.2,49.7,30.05,ENE,59,2.0,2.0,76,0.00,,---,0.00,79.00,VWS V14.00,2013-07-25 13:42:00,
2013-07-25 09:47:00,57.3,49.8,30.05,East,98,2.0,4.0,76,0.00,,---,0.00,77.00,VWS V14.00,2013-07-25 13:47:00,
2013-07-25 09:52:00,57.3,50.2,30.05,North,360,0.0,0.0,77,0.00,,---,0.00,95.00,VWS V14.00,2013-07-25 13:52:00,
2013-07-25 09:57:00,57.3,50.2,30.06,NNE,28,1.0,2.0,77,0.00,,---,0.00,93.00,VWS V14.00,2013-07-25 13:57:00,
2013-07-25 10:02:00,57.3,49.8,30.06,NE,38,1.0,1.0,76,0.00,,---,0.00,93.00,VWS V14.00,2013-07-25 14:02:00,
2013-07-25 10:07:00,57.5,50.4,30.06,ESE,105,0.0,0.0,77,0.00,,---,0.00,84.00,VWS V14.00,2013-07-25 14:07:00,
2013-07-25 10:12:00,57.5,50.4,30.05,East,88,1.0,1.0,77,0.00,,---,0.00,72.00,VWS V14.00,2013-07-25 14:12:00,
2013-07-25 10:17:00,57.3,50.5,30.05,NNE,25,3.0,3.0,78,0.00,,---,0.00,95.00,VWS V14.00,2013-07-25 14:17:00,
2013-07-25 10:22:00,57.3,50.5,30.05,NE,49,1.0,3.0,78,0.00,,---,0.00,118.00,VWS V14.00,2013-07-25 14:22:00,
2013-07-25 10:27:00,57.3,50.2,30.05,NE,47,0.0,0.0,77,0.00,,---,0.00,111.00,VWS V14.00,2013-07-25 14:27:00,
2013-07-25 10:32:00,57.5,51.0,30.05,ENE,67,2.0,3.0,79,0.00,,---,0.00,135.00,VWS V14.00,2013-07-25 14:32:00,
2013-07-25 10:37:00,57.6,50.8,30.06,ENE,75,0.0,1.0,78,0.00,,---,0.00,105.00,VWS V14.00,2013-07-25 14:37:00,
2013-07-25 10:42:00,57.8,51.0,30.06,ENE,77,0.0,3.0,78,0.00,,---,0.00,88.00,VWS V14.00,2013-07-25 14:42:00,
2013-07-25 10:47:00,57.8,50.7,30.06,ENE,57,2.0,2.0,77,0.00,,---,0.00,123.00,VWS V14.00,2013-07-25 14:47:00,
2013-07-25 10:52:00,57.8,51.3,30.06,NNE,14,1.0,3.0,79,0.00,,---,0.00,153.00,VWS V14.00,2013-07-25 14:52:00,
2013-07-25 10:57:00,57.8,51.0,30.06,NE,44,4.0,4.0,78,0.00,,---,0.00,153.00,VWS V14.00,2013-07-25 14:57:00,
2013-07-25 11:02:00,58.0,50.8,30.06,East,79,0.0,0.0,77,0.00,,---,0.00,130.00,VWS V14.00,2013-07-25 15:02:00,
2013-07-25 11:07:00,58.1,51.3,30.07,SSE,157,2.0,4.0,78,0.00,,---,0.00,98.00,VWS V14.00,2013-07-25 15:07:00,
2013-07-25 11:12:00,58.1,51.3,30.07,ENE,78,0.0,0.0,78,0.00,,---,0.00,98.00,VWS V14.00,2013-07-25 15:12:00,
2013-07-25 11:17:00,58.1,51.3,30.07,ENE,69,2.0,4.0,78,0.00,,---,0.00,91.00,VWS V14.00,2013-07-25 15:17:00,
2013-07-25 11:22:00,58.1,51.3,30.07,ENE,78,4.0,5.0,78,0.00,,---,0.00,100.00,VWS V14.00,2013-07-25 15:22:00,
2013-07-25 11:27:00,58.1,51.6,30.07,NNE,30,3.0,4.0,79,0.00,,---,0.00,97.00,VWS V14.00,2013-07-25 15:27:00,
2013-07-25 11:32:00,58.1,51.6,30.06,East,79,6.0,6.0,79,0.00,,---,0.00,137.00,VWS V14.00,2013-07-25 15:32:00,
2013-07-25 11:37:00,58.3,52.2,30.06,NE,48,3.0,5.0,80,0.00,,---,0.00,207.00,VWS V14.00,2013-07-25 15:37:00,
2013-07-25 11:42:00,58.4,52.3,30.07,NE,39,1.0,1.0,80,0.00,,---,0.00,181.00,VWS V14.00,2013-07-25 15:42:00,
2013-07-25 11:47:00,58.7,52.2,30.07,ESE,117,2.0,2.0,79,0.00,,---,0.00,190.00,VWS V14.00,2013-07-25 15:47:00,
2013-07-25 11:52:00,58.9,53.1,30.07,ESE,106,6.0,11.0,81,0.00,,---,0.00,200.00,VWS V14.00,2013-07-25 15:52:00,
2013-07-25 11:57:00,59.0,52.2,30.07,NE,44,1.0,3.0,78,0.00,,---,0.00,223.00,VWS V14.00,2013-07-25 15:57:00,
2013-07-25 12:02:00,59.2,53.0,30.07,NW,311,6.0,6.0,80,0.00,,---,0.00,193.00,VWS V14.00,2013-07-25 16:02:00,
2013-07-25 12:07:00,59.3,52.8,30.07,East,88,0.0,0.0,79,0.00,,---,0.00,313.00,VWS V14.00,2013-07-25 16:07:00,
2013-07-25 12:12:00,59.6,52.7,30.07,East,94,2.0,4.0,78,0.00,,---,0.00,237.00,VWS V14.00,2013-07-25 16:12:00,
2013-07-25 12:17:00,59.8,52.9,30.08,NE,56,4.0,6.0,78,0.00,,---,0.00,109.00,VWS V14.00,2013-07-25 16:17:00,
2013-07-25 12:22:00,59.6,52.7,30.08,NNE,28,0.0,1.0,78,0.00,,---,0.00,77.00,VWS V14.00,2013-07-25 16:22:00,
2013-07-25 12:27:00,59.5,52.6,30.08,NNW,346,3.0,3.0,78,0.00,,---,0.00,76.00,VWS V14.00,2013-07-25 16:27:00,
2013-07-25 12:32:00,59.3,53.1,30.08,East,80,0.0,0.0,80,0.00,,---,0.00,65.00,VWS V14.00,2013-07-25 16:32:00,
2013-07-25 12:37:00,59.2,53.0,30.08,ENE,76,2.0,2.0,80,0.00,,---,0.00,62.00,VWS V14.00,2013-07-25 16:37:00,
2013-07-25 12:42:00,59.2,53.4,30.08,NW,312,1.0,4.0,81,0.00,,---,0.00,70.00,VWS V14.00,2013-07-25 16:42:00,
2013-07-25 12:47:00,59.2,53.4,30.08,NNW,327,0.0,2.0,81,0.00,,---,0.00,90.00,VWS V14.00,2013-07-25 16:47:00,
2013-07-25 12:52:00,59.2,54.0,30.08,NE,56,0.0,0.0,83,0.00,,---,0.00,90.00,VWS V14.00,2013-07-25 16:52:00,
2013-07-25 12:57:00,59.3,53.8,30.07,ENE,74,1.0,2.0,82,0.00,,---,0.00,114.00,VWS V14.00,2013-07-25 16:57:00,
2013-07-25 13:02:00,59.5,54.3,30.07,NE,44,2.0,3.0,83,0.00,,---,0.00,149.00,VWS V14.00,2013-07-25 17:02:00,
2013-07-25 13:07:00,59.5,54.0,30.07,NW,307,0.0,0.0,82,0.00,,---,0.00,139.00,VWS V14.00,2013-07-25 17:07:00,
2013-07-25 13:12:00,59.6,53.8,30.07,NNE,17,0.0,1.0,81,0.00,,---,0.00,137.00,VWS V14.00,2013-07-25 17:12:00,
2013-07-25 13:17:00,59.8,54.0,30.07,NE,55,0.0,0.0,81,0.00,,---,0.00,118.00,VWS V14.00,2013-07-25 17:17:00,
2013-07-25 13:22:00,59.9,54.1,30.07,ENE,70,3.0,4.0,81,0.00,,---,0.00,128.00,VWS V14.00,2013-07-25 17:22:00,
2013-07-25 13:27:00,59.9,53.7,30.07,East,83,1.0,1.0,80,0.00,,---,0.00,162.00,VWS V14.00,2013-07-25 17:27:00,
2013-07-25 13:32:00,60.1,54.3,30.06,NNW,345,4.0,6.0,81,0.00,,---,0.00,232.00,VWS V14.00,2013-07-25 17:32:00,
2013-07-25 13:37:00,60.4,54.5,30.06,East,93,2.0,2.0,81,0.00,,---,0.00,241.00,VWS V14.00,2013-07-25 17:37:00,
2013-07-25 13:42:00,60.7,54.5,30.06,WSW,242,3.0,4.0,80,0.00,,---,0.00,257.00,VWS V14.00,2013-07-25 17:42:00,
2013-07-25 13:47:00,60.9,55.0,30.06,NNE,25,3.0,3.0,81,0.00,,---,0.00,227.00,VWS V14.00,2013-07-25 17:47:00,
2013-07-25 13:52:00,61.2,54.6,30.06,East,86,0.0,1.0,79,0.00,,---,0.00,190.00,VWS V14.00,2013-07-25 17:52:00,
2013-07-25 13:57:00,61.2,54.3,30.06,East,82,3.0,3.0,78,0.00,,---,0.00,193.00,VWS V14.00,2013-07-25 17:57:00,
2013-07-25 14:02:00,61.2,55.0,30.06,NW,324,0.0,2.0,80,0.00,,---,0.00,193.00,VWS V14.00,2013-07-25 18:02:00,
2013-07-25 14:07:00,61.3,55.1,30.05,West,279,1.0,1.0,80,0.00,,---,0.00,185.00,VWS V14.00,2013-07-25 18:07:00,
2013-07-25 14:12:00,61.2,54.6,30.05,NNE,28,0.0,1.0,79,0.00,,---,0.00,185.00,VWS V14.00,2013-07-25 18:12:00,
2013-07-25 14:17:00,61.2,54.6,30.06,NE,56,0.0,1.0,79,0.00,,---,0.00,156.00,VWS V14.00,2013-07-25 18:17:00,
2013-07-25 14:22:00,61.0,54.8,30.05,ESE,121,4.0,5.0,80,0.00,,---,0.00,137.00,VWS V14.00,2013-07-25 18:22:00,
2013-07-25 14:27:00,60.9,54.7,30.05,NNE,17,0.0,0.0,80,0.00,,---,0.00,116.00,VWS V14.00,2013-07-25 18:27:00,
2013-07-25 14:32:00,60.9,54.7,30.06,ESE,104,0.0,2.0,80,0.00,,---,0.00,93.00,VWS V14.00,2013-07-25 18:32:00,
2013-07-25 14:37:00,60.9,55.0,30.06,NE,44,2.0,2.0,81,0.00,,---,0.00,97.00,VWS V14.00,2013-07-25 18:37:00,
2013-07-25 14:42:00,60.5,54.7,30.06,NNE,30,6.0,6.0,81,0.00,,---,0.00,100.00,VWS V14.00,2013-07-25 18:42:00,
2013-07-25 14:47:00,60.4,54.9,30.06,NNE,32,0.0,1.0,82,0.00,,---,0.00,128.00,VWS V14.00,2013-07-25 18:47:00,
2013-07-25 14:52:00,60.4,54.5,30.06,ESE,123,1.0,3.0,81,0.00,,---,0.00,134.00,VWS V14.00,2013-07-25 18:52:00,
2013-07-25 14:57:00,60.5,54.7,30.06,ENE,61,3.0,4.0,81,0.00,,---,0.00,149.00,VWS V14.00,2013-07-25 18:57:00,
2013-07-25 15:02:00,60.7,55.2,30.06,NNW,342,2.0,2.0,82,0.00,,---,0.00,121.00,VWS V14.00,2013-07-25 19:02:00,
2013-07-25 15:07:00,60.9,55.4,30.07,NNE,28,0.0,0.0,82,0.00,,---,0.00,111.00,VWS V14.00,2013-07-25 19:07:00,
2013-07-25 15:12:00,60.9,54.7,30.07,NE,45,0.0,0.0,80,0.00,,---,0.00,105.00,VWS V14.00,2013-07-25 19:12:00,
2013-07-25 15:17:00,60.9,54.7,30.07,NE,35,0.0,0.0,80,0.00,,---,0.00,93.00,VWS V14.00,2013-07-25 19:17:00,
2013-07-25 15:22:00,61.0,55.1,30.07,SE,135,0.0,0.0,81,0.00,,---,0.00,105.00,VWS V14.00,2013-07-25 19:22:00,
2013-07-25 15:27:00,61.2,55.3,30.07,NE,38,0.0,1.0,81,0.00,,---,0.00,123.00,VWS V14.00,2013-07-25 19:27:00,
2013-07-25 15:32:00,61.2,55.7,30.07,NE,34,0.0,0.0,82,0.00,,---,0.00,123.00,VWS V14.00,2013-07-25 19:32:00,
2013-07-25 15:37:00,61.3,55.4,30.07,ENE,59,0.0,0.0,81,0.00,,---,0.00,132.00,VWS V14.00,2013-07-25 19:37:00,
2013-07-25 15:42:00,61.5,56.0,30.07,ESE,103,1.0,1.0,82,0.00,,---,0.00,130.00,VWS V14.00,2013-07-25 19:42:00,
2013-07-25 15:47:00,61.6,56.4,30.07,SSE,154,1.0,1.0,83,0.00,,---,0.00,127.00,VWS V14.00,2013-07-25 19:47:00,
2013-07-25 15:52:00,61.6,55.7,30.06,ENE,61,1.0,1.0,81,0.00,,---,0.00,167.00,VWS V14.00,2013-07-25 19:52:00,
2013-07-25 15:57:00,61.8,56.2,30.06,SE,136,1.0,5.0,82,0.00,,---,0.00,165.00,VWS V14.00,2013-07-25 19:57:00,
2013-07-25 16:02:00,62.0,56.1,30.06,NE,44,1.0,1.0,81,0.00,,---,0.00,137.00,VWS V14.00,2013-07-25 20:02:00,
2013-07-25 16:07:00,62.1,56.2,30.06,NE,46,1.0,1.0,81,0.00,,---,0.00,100.00,VWS V14.00,2013-07-25 20:07:00,
2013-07-25 16:12:00,62.1,56.2,30.06,NE,46,0.0,1.0,81,0.00,,---,0.00,93.00,VWS V14.00,2013-07-25 20:12:00,
2013-07-25 16:17:00,62.1,56.2,30.06,East,82,3.0,3.0,81,0.00,,---,0.00,100.00,VWS V14.00,2013-07-25 20:17:00,
2013-07-25 16:22:00,62.1,56.2,30.06,ENE,74,0.0,0.0,81,0.00,,---,0.00,102.00,VWS V14.00,2013-07-25 20:22:00,
2013-07-25 16:27:00,62.1,55.9,30.06,NE,40,2.0,5.0,80,0.00,,---,0.00,135.00,VWS V14.00,2013-07-25 20:27:00,
2013-07-25 16:32:00,62.0,55.8,30.06,North,349,3.0,5.0,80,0.00,,---,0.00,160.00,VWS V14.00,2013-07-25 20:32:00,
2013-07-25 16:37:00,62.1,55.9,30.05,NE,50,4.0,5.0,80,0.00,,---,0.00,176.00,VWS V14.00,2013-07-25 20:37:00,
2013-07-25 16:42:00,62.3,56.7,30.05,NE,51,1.0,3.0,82,0.00,,---,0.00,190.00,VWS V14.00,2013-07-25 20:42:00,
2013-07-25 16:47:00,62.6,56.3,30.05,ENE,74,1.0,2.0,80,0.00,,---,0.00,207.00,VWS V14.00,2013-07-25 20:47:00,
2013-07-25 16:52:00,62.7,56.1,30.04,East,96,0.0,1.0,79,0.00,,---,0.00,250.00,VWS V14.00,2013-07-25 20:52:00,
2013-07-25 16:57:00,62.9,56.3,30.04,ENE,69,3.0,3.0,79,0.00,,---,0.00,251.00,VWS V14.00,2013-07-25 20:57:00,
2013-07-25 17:02:00,63.2,55.9,30.04,ENE,78,0.0,1.0,77,0.00,,---,0.00,237.00,VWS V14.00,2013-07-25 21:02:00,
2013-07-25 17:07:00,63.5,57.2,30.04,East,84,2.0,3.0,80,0.00,,---,0.00,193.00,VWS V14.00,2013-07-25 21:07:00,
2013-07-25 17:12:00,63.4,56.4,30.05,NNE,30,2.0,2.0,78,0.00,,---,0.00,181.00,VWS V14.00,2013-07-25 21:12:00,
2013-07-25 17:17:00,63.2,56.2,30.05,NE,46,1.0,4.0,78,0.00,,---,0.00,155.00,VWS V14.00,2013-07-25 21:17:00,
2013-07-25 17:22:00,63.2,56.6,30.05,NE,50,0.0,1.0,79,0.00,,---,0.00,128.00,VWS V14.00,2013-07-25 21:22:00,
2013-07-25 17:27:00,63.2,56.6,30.05,ENE,77,1.0,3.0,79,0.00,,---,0.00,116.00,VWS V14.00,2013-07-25 21:27:00,
2013-07-25 17:32:00,63.2,56.6,30.05,North,350,0.0,2.0,79,0.00,,---,0.00,109.00,VWS V14.00,2013-07-25 21:32:00,
2013-07-25 17:33:00,63.2,56.6,30.05,North,350,0.0,0.0,79,0.00,,---,0.00,109.00,VWS V14.00,2013-07-25 21:33:00,
2013-07-25 17:38:00,63.2,56.6,30.05,NE,34,0.0,1.0,79,0.00,,---,0.00,104.00,VWS V14.00,2013-07-25 21:38:00,
2013-07-25 17:43:00,63.2,56.9,30.05,NNE,21,0.0,0.0,80,0.00,,---,0.00,95.00,VWS V14.00,2013-07-25 21:43:00,
2013-07-25 17:48:00,63.1,57.2,30.05,SE,129,2.0,2.0,81,0.00,,---,0.00,83.00,VWS V14.00,2013-07-25 21:48:00,
2013-07-25 17:53:00,62.9,57.0,30.05,NE,55,0.0,1.0,81,0.00,,---,0.00,67.00,VWS V14.00,2013-07-25 21:53:00,
2013-07-25 17:58:00,62.7,56.8,30.05,NE,53,0.0,1.0,81,0.00,,---,0.00,56.00,VWS V14.00,2013-07-25 21:58:00,
2013-07-25 18:03:00,62.6,56.7,30.05,NE,44,0.0,0.0,81,0.00,,---,0.00,44.00,VWS V14.00,2013-07-25 22:03:00,
2013-07-25 18:08:00,62.4,56.8,30.05,NE,47,0.0,4.0,82,0.00,,---,0.00,47.00,VWS V14.00,2013-07-25 22:08:00,
2013-07-25 18:13:00,62.3,57.1,30.05,NE,51,0.0,0.0,83,0.00,,---,0.00,39.00,VWS V14.00,2013-07-25 22:13:00,
2013-07-25 18:18:00,62.1,56.9,30.06,North,360,1.0,1.0,83,0.00,,---,0.00,35.00,VWS V14.00,2013-07-25 22:18:00,
2013-07-25 18:23:00,62.0,57.5,30.06,North,9,0.0,1.0,85,0.00,,---,0.00,35.00,VWS V14.00,2013-07-25 22:23:00,
2013-07-25 18:28:00,61.8,56.9,30.06,North,9,0.0,1.0,84,0.00,,---,0.00,35.00,VWS V14.00,2013-07-25 22:28:00,
2013-07-25 18:33:00,61.6,57.0,30.06,SE,143,0.0,1.0,85,0.00,,---,0.00,39.00,VWS V14.00,2013-07-25 22:33:00,
2013-07-25 18:38:00,61.6,57.7,30.06,SE,141,0.0,1.0,87,0.00,,---,0.00,33.00,VWS V14.00,2013-07-25 22:38:00,
2013-07-25 18:43:00,61.5,57.6,30.06,SE,141,0.0,1.0,87,0.00,,---,0.00,25.00,VWS V14.00,2013-07-25 22:43:00,
2013-07-25 18:48:00,61.3,57.4,30.06,SE,128,0.0,2.0,87,0.00,,---,0.00,26.00,VWS V14.00,2013-07-25 22:48:00,
2013-07-25 18:53:00,61.3,57.4,30.06,SE,126,0.0,2.0,87,0.00,,---,0.00,25.00,VWS V14.00,2013-07-25 22:53:00,
2013-07-25 18:58:00,61.3,57.7,30.06,SE,126,0.0,1.0,88,0.00,,---,0.00,21.00,VWS V14.00,2013-07-25 22:58:00,
2013-07-25 19:03:00,61.3,57.7,30.06,SE,126,0.0,0.0,88,0.00,,---,0.00,25.00,VWS V14.00,2013-07-25 23:03:00,
2013-07-25 19:08:00,61.3,58.0,30.06,SE,126,0.0,1.0,89,0.00,,---,0.00,19.00,VWS V14.00,2013-07-25 23:08:00,
2013-07-25 19:13:00,61.2,57.9,30.06,NE,53,0.0,1.0,89,0.00,,---,0.00,19.00,VWS V14.00,2013-07-25 23:13:00,
2013-07-25 19:18:00,61.2,58.2,30.06,ENE,63,0.0,4.0,90,0.00,,---,0.00,19.00,VWS V14.00,2013-07-25 23:18:00,
2013-07-25 19:23:00,61.0,58.0,30.06,ENE,59,1.0,1.0,90,0.00,,---,0.00,14.00,VWS V14.00,2013-07-25 23:23:00,
2013-07-25 19:28:00,61.0,58.0,30.06,East,84,0.0,2.0,90,0.00,,---,0.00,12.00,VWS V14.00,2013-07-25 23:28:00,
2013-07-25 19:33:00,60.9,58.3,30.06,ENE,72,4.0,6.0,91,0.00,,---,0.00,11.00,VWS V14.00,2013-07-25 23:33:00,
2013-07-25 19:38:00,60.7,58.1,30.06,East,90,0.0,0.0,91,0.00,,---,0.00,11.00,VWS V14.00,2013-07-25 23:38:00,
2013-07-25 19:43:00,60.7,58.1,30.06,ENE,57,0.0,1.0,91,0.00,,---,0.00,9.00,VWS V14.00,2013-07-25 23:43:00,
2013-07-25 19:48:00,60.5,57.9,30.06,ENE,76,0.0,1.0,91,0.00,,---,0.00,7.00,VWS V14.00,2013-07-25 23:48:00,
2013-07-25 19:53:00,60.4,57.8,30.06,ENE,64,0.0,3.0,91,0.00,,---,0.00,5.00,VWS V14.00,2013-07-25 23:53:00,
2013-07-25 19:58:00,60.4,58.1,30.07,NE,40,2.0,3.0,92,0.00,,---,0.00,0.00,VWS V14.00,2013-07-25 23:58:00,
2013-07-25 20:03:00,60.2,57.9,30.07,NE,54,3.0,4.0,92,0.00,,---,0.01,0.00,VWS V14.00,2013-07-26 00:03:00,
2013-07-25 20:08:00,60.1,57.8,30.07,NE,47,2.0,5.0,92,0.00,,---,0.01,0.00,VWS V14.00,2013-07-26 00:08:00,
2013-07-25 20:13:00,59.9,57.9,30.07,NE,51,0.0,3.0,93,0.00,,---,0.01,0.00,VWS V14.00,2013-07-26 00:13:00,
2013-07-25 20:18:00,59.9,57.9,30.07,East,84,0.0,4.0,93,0.00,,---,0.01,0.00,VWS V14.00,2013-07-26 00:18:00,
2013-07-25 20:23:00,59.8,57.8,30.07,NE,48,1.0,4.0,93,0.00,,---,0.02,0.00,VWS V14.00,2013-07-26 00:23:00,
2013-07-25 20:28:00,59.6,57.9,30.07,ENE,73,3.0,3.0,94,0.00,,---,0.02,0.00,VWS V14.00,2013-07-26 00:28:00,
2013-07-25 20:33:00,59.5,57.8,30.07,ESE,108,0.0,0.0,94,0.00,,---,0.02,0.00,VWS V14.00,2013-07-26 00:33:00,
2013-07-25 20:38:00,59.5,57.8,30.07,NE,34,2.0,2.0,94,0.00,,---,0.02,0.00,VWS V14.00,2013-07-26 00:38:00,
2013-07-25 20:43:00,59.3,57.9,30.07,ENE,67,0.0,3.0,95,0.00,,---,0.02,0.00,VWS V14.00,2013-07-26 00:43:00,
2013-07-25 20:48:00,59.3,57.9,30.07,North,360,2.0,4.0,95,0.00,,---,0.03,0.00,VWS V14.00,2013-07-26 00:48:00,
2013-07-25 20:53:00,59.2,57.8,30.07,ENE,78,0.0,1.0,95,0.00,,---,0.03,0.00,VWS V14.00,2013-07-26 00:53:00,
2013-07-25 20:58:00,59.0,57.6,30.07,South,180,3.0,6.0,95,0.00,,---,0.03,0.00,VWS V14.00,2013-07-26 00:58:00,
2013-07-25 21:03:00,58.9,57.5,30.07,ENE,75,0.0,3.0,95,0.00,,---,0.03,0.00,VWS V14.00,2013-07-26 01:03:00,
2013-07-25 21:08:00,58.9,57.8,30.07,East,80,0.0,1.0,96,0.00,,---,0.03,0.00,VWS V14.00,2013-07-26 01:08:00,
2013-07-25 21:13:00,58.9,57.8,30.07,NNW,341,0.0,0.0,96,0.00,,---,0.03,0.00,VWS V14.00,2013-07-26 01:13:00,
2013-07-25 21:18:00,58.9,57.8,30.07,ENE,64,0.0,4.0,96,0.00,,---,0.03,0.00,VWS V14.00,2013-07-26 01:18:00,
2013-07-25 21:23:00,58.9,58.0,30.07,NE,51,3.0,4.0,97,0.00,,---,0.03,0.00,VWS V14.00,2013-07-26 01:23:00,
2013-07-25 21:28:00,58.7,57.8,30.07,South,187,4.0,4.0,97,0.00,,---,0.03,0.00,VWS V14.00,2013-07-26 01:28:00,
2013-07-25 21:33:00,58.7,57.8,30.07,NE,51,5.0,5.0,97,0.00,,---,0.04,0.00,VWS V14.00,2013-07-26 01:33:00,
2013-07-25 21:38:00,58.7,57.8,30.07,NE,50,0.0,3.0,97,0.00,,---,0.04,0.00,VWS V14.00,2013-07-26 01:38:00,
2013-07-25 21:43:00,58.7,57.8,30.06,ENE,65,4.0,4.0,97,0.00,,---,0.04,0.00,VWS V14.00,2013-07-26 01:43:00,
2013-07-25 21:48:00,58.6,57.8,30.06,NE,40,6.0,6.0,97,0.00,,---,0.04,0.00,VWS V14.00,2013-07-26 01:48:00,
2013-07-25 21:53:00,58.6,57.8,30.06,NE,40,0.0,2.0,97,0.00,,---,0.04,0.00,VWS V14.00,2013-07-26 01:53:00,
2013-07-25 21:58:00,58.6,57.8,30.06,NE,42,0.0,2.0,97,0.00,,---,0.04,0.00,VWS V14.00,2013-07-26 01:58:00,
2013-07-25 22:03:00,58.6,57.8,30.06,NE,42,0.0,3.0,97,0.00,,---,0.05,0.00,VWS V14.00,2013-07-26 02:03:00,
2013-07-25 22:08:00,58.4,57.6,30.07,NE,36,2.0,3.0,97,0.00,,---,0.05,0.00,VWS V14.00,2013-07-26 02:08:00,
2013-07-25 22:13:00,58.4,57.6,30.06,NE,36,0.0,1.0,97,0.00,,---,0.05,0.00,VWS V14.00,2013-07-26 02:13:00,
2013-07-25 22:18:00,58.4,57.6,30.06,NE,36,0.0,1.0,97,0.00,,---,0.05,0.00,VWS V14.00,2013-07-26 02:18:00,
2013-07-25 22:23:00,58.4,57.6,30.05,NE,38,0.0,1.0,97,0.00,,---,0.05,0.00,VWS V14.00,2013-07-26 02:23:00,
2013-07-25 22:28:00,58.4,57.6,30.05,North,360,0.0,3.0,97,0.00,,---,0.05,0.00,VWS V14.00,2013-07-26 02:28:00,
2013-07-25 22:33:00,58.3,57.5,30.05,ESE,117,0.0,3.0,97,0.00,,---,0.05,0.00,VWS V14.00,2013-07-26 02:33:00,
2013-07-25 22:38:00,58.3,57.5,30.05,ESE,113,0.0,1.0,97,0.00,,---,0.05,0.00,VWS V14.00,2013-07-26 02:38:00,
2013-07-25 22:43:00,58.3,57.5,30.05,WNW,301,0.0,1.0,97,0.00,,---,0.05,0.00,VWS V14.00,2013-07-26 02:43:00,
2013-07-25 22:48:00,58.3,57.5,30.05,NNE,23,0.0,1.0,97,0.00,,---,0.05,0.00,VWS V14.00,2013-07-26 02:48:00,
2013-07-25 22:53:00,58.3,57.5,30.06,NNE,21,0.0,0.0,97,0.00,,---,0.05,0.00,VWS V14.00,2013-07-26 02:53:00,
2013-07-25 22:58:00,58.3,57.5,30.06,NNE,19,3.0,3.0,97,0.00,,---,0.05,0.00,VWS V14.00,2013-07-26 02:58:00,
2013-07-25 23:03:00,58.3,57.7,30.06,NE,55,0.0,1.0,98,0.00,,---,0.05,0.00,VWS V14.00,2013-07-26 03:03:00,
2013-07-25 23:08:00,58.3,57.7,30.06,NE,55,0.0,1.0,98,0.00,,---,0.05,0.00,VWS V14.00,2013-07-26 03:08:00,
2013-07-25 23:13:00,58.3,57.7,30.06,North,360,0.0,1.0,98,0.00,,---,0.05,0.00,VWS V14.00,2013-07-26 03:13:00,
2013-07-25 23:18:00,58.3,57.7,30.05,North,360,3.0,3.0,98,0.00,,---,0.05,0.00,VWS V14.00,2013-07-26 03:18:00,
2013-07-25 23:23:00,58.3,57.7,30.05,North,360,0.0,2.0,98,0.00,,---,0.05,0.00,VWS V14.00,2013-07-26 03:23:00,
2013-07-25 23:28:00,58.3,57.7,30.05,North,360,0.0,2.0,98,0.00,,---,0.06,0.00,VWS V14.00,2013-07-26 03:28:00,
2013-07-25 23:33:00,58.3,57.7,30.05,North,360,2.0,2.0,98,0.00,,---,0.06,0.00,VWS V14.00,2013-07-26 03:33:00,
2013-07-25 23:38:00,58.3,57.7,30.05,North,360,0.0,0.0,98,0.00,,---,0.06,0.00,VWS V14.00,2013-07-26 03:38:00,
2013-07-25 23:43:00,58.3,57.7,30.05,North,360,0.0,0.0,98,0.00,,---,0.06,0.00,VWS V14.00,2013-07-26 03:43:00,
2013-07-25 23:48:00,58.3,57.7,30.05,North,360,0.0,0.0,98,0.00,,---,0.06,0.00,VWS V14.00,2013-07-26 03:48:00,
2013-07-25 23:53:00,58.3,57.7,30.05,North,360,0.0,3.0,98,0.00,,---,0.06,0.00,VWS V14.00,2013-07-26 03:53:00,
2013-07-25 23:58:00,58.3,57.7,30.05,North,360,0.0,1.0,98,0.00,,---,0.06,0.00,VWS V14.00,2013-07-26 03:58:00,